Irene — MCQW — position and weather

sailwx.info

Track history (hours):
 
Tides and Currents Weather Stations Pressure Air Temp Water Temp Dewpoint Dewpoint Depression Visibility Wind Speed Wind Dir Waves Ship Positions

Irene

Last reported at 2017-Sep-29 19:28 UTC. Time now 2017-Nov-17 19:25 UTC.
Position N 50°19' W 004°10'.
Warning: this ship's position is 48 days out of date.

Length 34 m.

Type: Sailing vessel. MMSI: 235085663.

Date/timePositionNaut miles runAvg speedWind from/ knotsBaromVisibWave heightAir tempDewpointWater temp
2017-Sep-29 19:28N 50°19' W 004°10'21 3.2
2017-Sep-29 13:03N 50°09' W 003°42'0 4.0
2017-Sep-29 12:59N 50°09' W 003°42'32 0.7
2017-Sep-27 15:45N 50°12' W 004°32'17 4.5
2017-Sep-27 11:59N 50°19' W 004°09'2 3.2
2017-Sep-27 11:30N 50°21' W 004°08'1 2.0
2017-Sep-27 10:56N 50°22' W 004°08'0 0.0
2017-Sep-27 06:38N 50°22' W 004°08'0 0.0
2017-Sep-27 05:38N 50°22' W 004°08'0 0.0
2017-Sep-27 02:29N 50°22' W 004°08'0 0.0
2017-Sep-26 14:02N 50°22' W 004°08'0 0.0
2017-Sep-26 13:56N 50°22' W 004°08'13 0.3
2017-Sep-24 13:55N 50°13' W 004°24'  
2017-Sep-22 01:59N 50°22' W 004°08'0 0.0
2017-Sep-22 01:23N 50°22' W 004°08'0 0.0
2017-Sep-22 00:59N 50°22' W 004°08'0 0.0
2017-Sep-22 00:29N 50°22' W 004°08'0 0.0
2017-Sep-21 23:59N 50°22' W 004°08'0 0.0
2017-Sep-21 23:17N 50°22' W 004°08'0 0.0
2017-Sep-21 22:59N 50°22' W 004°08'0 0.0
2017-Sep-21 22:29N 50°22' W 004°08'0 0.0
2017-Sep-21 21:02N 50°22' W 004°08'0 0.0
2017-Sep-21 20:59N 50°22' W 004°08'0 0.0
2017-Sep-21 20:29N 50°22' W 004°08'0 0.0
2017-Sep-21 09:41N 50°22' W 004°08'0 0.0
2017-Sep-21 09:14N 50°22' W 004°08'0 0.0
2017-Sep-21 08:53N 50°22' W 004°08'0 0.0
2017-Sep-21 08:26N 50°22' W 004°08'0 0.0
2017-Sep-21 07:56N 50°22' W 004°08'0 0.0
2017-Sep-21 07:26N 50°22' W 004°08'0 0.0
2017-Sep-21 06:59N 50°22' W 004°08'0 0.0
2017-Sep-21 06:26N 50°22' W 004°08'0 0.0
2017-Sep-21 05:56N 50°22' W 004°08'0 0.0
2017-Sep-21 05:20N 50°22' W 004°08'0 0.0
2017-Sep-21 04:59N 50°22' W 004°08'0 0.0
2017-Sep-21 04:11N 50°22' W 004°08'0 0.0
2017-Sep-21 03:47N 50°22' W 004°08'0 0.0
2017-Sep-21 03:23N 50°22' W 004°08'0 0.0
2017-Sep-21 02:53N 50°22' W 004°08'0 0.0
2017-Sep-21 02:29N 50°22' W 004°08'0 0.0
2017-Sep-21 01:35N 50°22' W 004°08'0 0.0
2017-Sep-21 00:39N 50°22' W 004°08'0 0.0
2017-Sep-21 00:17N 50°22' W 004°08'0 0.0
2017-Sep-20 23:21N 50°22' W 004°08'0 0.0
2017-Sep-20 23:00N 50°22' W 004°08'0 0.0
2017-Sep-20 22:24N 50°22' W 004°08'0 0.0
2017-Sep-20 22:00N 50°22' W 004°08'0 0.0
2017-Sep-20 21:30N 50°22' W 004°08'0 0.0
2017-Sep-20 20:54N 50°22' W 004°08'0 0.0
2017-Sep-20 20:30N 50°22' W 004°08'0 0.0
2017-Sep-20 20:00N 50°22' W 004°08'0 0.0
2017-Sep-20 19:27N 50°22' W 004°08'0 0.0
2017-Sep-20 19:00N 50°22' W 004°08'0 0.0
2017-Sep-20 18:30N 50°22' W 004°08'0 0.0
2017-Sep-20 18:00N 50°22' W 004°08'0 0.0
2017-Sep-20 17:30N 50°22' W 004°08'0 0.0
2017-Sep-20 17:00N 50°22' W 004°08'0 0.0
2017-Sep-20 16:27N 50°22' W 004°08'0 0.0
2017-Sep-20 16:00N 50°22' W 004°08'0 0.0
2017-Sep-20 15:30N 50°22' W 004°08'0 0.0
2017-Sep-20 15:00N 50°22' W 004°08'0 0.0
2017-Sep-20 14:00N 50°22' W 004°08'0 0.0
2017-Sep-20 13:30N 50°22' W 004°08'0 0.0
2017-Sep-20 12:54N 50°22' W 004°08'0 0.0
2017-Sep-20 12:27N 50°22' W 004°08'0 0.0
2017-Sep-20 12:00N 50°22' W 004°08'0 0.0
2017-Sep-20 11:30N 50°22' W 004°08'0 0.0
2017-Sep-20 11:00N 50°22' W 004°08'0 0.0
2017-Sep-20 09:45N 50°22' W 004°08'0 0.0
2017-Sep-20 09:27N 50°22' W 004°08'0 0.0
2017-Sep-20 08:36N 50°22' W 004°08'0 0.0
2017-Sep-20 08:27N 50°22' W 004°08'0 0.0
2017-Sep-20 07:03N 50°22' W 004°08'0 0.0
2017-Sep-20 06:51N 50°22' W 004°08'0 0.0
2017-Sep-20 06:21N 50°22' W 004°08'0 0.0
2017-Sep-20 05:54N 50°22' W 004°08'0 0.0
2017-Sep-20 05:30N 50°22' W 004°08'0 0.0
2017-Sep-20 05:00N 50°22' W 004°08'0 0.0
2017-Sep-20 04:30N 50°22' W 004°08'0 0.0
2017-Sep-20 04:00N 50°22' W 004°08'0 0.0
2017-Sep-20 03:27N 50°22' W 004°08'0 0.0
2017-Sep-20 02:57N 50°22' W 004°08'0 0.0
2017-Sep-20 02:30N 50°22' W 004°08'0 0.0
2017-Sep-20 01:57N 50°22' W 004°08'0 0.0
2017-Sep-20 01:21N 50°22' W 004°08'0 0.0
2017-Sep-20 00:57N 50°22' W 004°08'0 0.0
2017-Sep-20 00:27N 50°22' W 004°08'0 0.0
2017-Sep-19 23:48N 50°22' W 004°08'0 0.0
2017-Sep-19 23:30N 50°22' W 004°08'0 0.0
2017-Sep-19 22:57N 50°22' W 004°08'0 0.0
2017-Sep-19 22:29N 50°22' W 004°08'0 0.0
2017-Sep-19 21:50N 50°22' W 004°08'0 0.0
2017-Sep-19 21:29N 50°22' W 004°08'0 0.0
2017-Sep-19 20:59N 50°22' W 004°08'0 0.0
2017-Sep-19 20:29N 50°22' W 004°08'0 0.0
2017-Sep-19 19:57N 50°22' W 004°08'0 0.0
2017-Sep-19 19:30N 50°22' W 004°08'  
Track history (hours):
 
Tides and Currents Weather Stations Pressure Air Temp Water Temp Dewpoint Dewpoint Depression Visibility Wind Speed Wind Dir Waves Ship Positions

Irene

Last reported at 2017-Sep-29 19:28 UTC. Time now 2017-Nov-17 19:25 UTC.
Position N 50°19' W 004°10'.
Warning: this ship's position is 48 days out of date.

Length 34 m.

Type: Sailing vessel. MMSI: 235085663.

Date/timePositionNaut miles runAvg speedWind from/ knotsBaromVisibWave heightAir tempDewpointWater temp
2017-Sep-29 19:28N 50°19' W 004°10'21 3.2
2017-Sep-29 13:03N 50°09' W 003°42'0 4.0
2017-Sep-29 12:59N 50°09' W 003°42'32 0.7
2017-Sep-27 15:45N 50°12' W 004°32'17 4.5
2017-Sep-27 11:59N 50°19' W 004°09'2 3.2
2017-Sep-27 11:30N 50°21' W 004°08'1 2.0
2017-Sep-27 10:56N 50°22' W 004°08'0 0.0
2017-Sep-27 06:38N 50°22' W 004°08'0 0.0
2017-Sep-27 05:38N 50°22' W 004°08'0 0.0
2017-Sep-27 02:29N 50°22' W 004°08'0 0.0
2017-Sep-26 14:02N 50°22' W 004°08'0 0.0
2017-Sep-26 13:56N 50°22' W 004°08'13 0.3
2017-Sep-24 13:55N 50°13' W 004°24'  
2017-Sep-22 01:59N 50°22' W 004°08'0 0.0
2017-Sep-22 01:23N 50°22' W 004°08'0 0.0
2017-Sep-22 00:59N 50°22' W 004°08'0 0.0
2017-Sep-22 00:29N 50°22' W 004°08'0 0.0
2017-Sep-21 23:59N 50°22' W 004°08'0 0.0
2017-Sep-21 23:17N 50°22' W 004°08'0 0.0
2017-Sep-21 22:59N 50°22' W 004°08'0 0.0
2017-Sep-21 22:29N 50°22' W 004°08'0 0.0
2017-Sep-21 21:02N 50°22' W 004°08'0 0.0
2017-Sep-21 20:59N 50°22' W 004°08'0 0.0
2017-Sep-21 20:29N 50°22' W 004°08'0 0.0
2017-Sep-21 09:41N 50°22' W 004°08'0 0.0
2017-Sep-21 09:14N 50°22' W 004°08'0 0.0
2017-Sep-21 08:53N 50°22' W 004°08'0 0.0
2017-Sep-21 08:26N 50°22' W 004°08'0 0.0
2017-Sep-21 07:56N 50°22' W 004°08'0 0.0
2017-Sep-21 07:26N 50°22' W 004°08'0 0.0
2017-Sep-21 06:59N 50°22' W 004°08'0 0.0
2017-Sep-21 06:26N 50°22' W 004°08'0 0.0
2017-Sep-21 05:56N 50°22' W 004°08'0 0.0
2017-Sep-21 05:20N 50°22' W 004°08'0 0.0
2017-Sep-21 04:59N 50°22' W 004°08'0 0.0
2017-Sep-21 04:11N 50°22' W 004°08'0 0.0
2017-Sep-21 03:47N 50°22' W 004°08'0 0.0
2017-Sep-21 03:23N 50°22' W 004°08'0 0.0
2017-Sep-21 02:53N 50°22' W 004°08'0 0.0
2017-Sep-21 02:29N 50°22' W 004°08'0 0.0
2017-Sep-21 01:35N 50°22' W 004°08'0 0.0
2017-Sep-21 00:39N 50°22' W 004°08'0 0.0
2017-Sep-21 00:17N 50°22' W 004°08'0 0.0
2017-Sep-20 23:21N 50°22' W 004°08'0 0.0
2017-Sep-20 23:00N 50°22' W 004°08'0 0.0
2017-Sep-20 22:24N 50°22' W 004°08'0 0.0
2017-Sep-20 22:00N 50°22' W 004°08'0 0.0
2017-Sep-20 21:30N 50°22' W 004°08'0 0.0
2017-Sep-20 20:54N 50°22' W 004°08'0 0.0
2017-Sep-20 20:30N 50°22' W 004°08'0 0.0
2017-Sep-20 20:00N 50°22' W 004°08'0 0.0
2017-Sep-20 19:27N 50°22' W 004°08'0 0.0
2017-Sep-20 19:00N 50°22' W 004°08'0 0.0
2017-Sep-20 18:30N 50°22' W 004°08'0 0.0
2017-Sep-20 18:00N 50°22' W 004°08'0 0.0
2017-Sep-20 17:30N 50°22' W 004°08'0 0.0
2017-Sep-20 17:00N 50°22' W 004°08'0 0.0
2017-Sep-20 16:27N 50°22' W 004°08'0 0.0
2017-Sep-20 16:00N 50°22' W 004°08'0 0.0
2017-Sep-20 15:30N 50°22' W 004°08'0 0.0
2017-Sep-20 15:00N 50°22' W 004°08'0 0.0
2017-Sep-20 14:00N 50°22' W 004°08'0 0.0
2017-Sep-20 13:30N 50°22' W 004°08'0 0.0
2017-Sep-20 12:54N 50°22' W 004°08'0 0.0
2017-Sep-20 12:27N 50°22' W 004°08'0 0.0
2017-Sep-20 12:00N 50°22' W 004°08'0 0.0
2017-Sep-20 11:30N 50°22' W 004°08'0 0.0
2017-Sep-20 11:00N 50°22' W 004°08'0 0.0
2017-Sep-20 09:45N 50°22' W 004°08'0 0.0
2017-Sep-20 09:27N 50°22' W 004°08'0 0.0
2017-Sep-20 08:36N 50°22' W 004°08'0 0.0
2017-Sep-20 08:27N 50°22' W 004°08'0 0.0
2017-Sep-20 07:03N 50°22' W 004°08'0 0.0
2017-Sep-20 06:51N 50°22' W 004°08'0 0.0
2017-Sep-20 06:21N 50°22' W 004°08'0 0.0
2017-Sep-20 05:54N 50°22' W 004°08'0 0.0
2017-Sep-20 05:30N 50°22' W 004°08'0 0.0
2017-Sep-20 05:00N 50°22' W 004°08'0 0.0
2017-Sep-20 04:30N 50°22' W 004°08'0 0.0
2017-Sep-20 04:00N 50°22' W 004°08'0 0.0
2017-Sep-20 03:27N 50°22' W 004°08'0 0.0
2017-Sep-20 02:57N 50°22' W 004°08'0 0.0
2017-Sep-20 02:30N 50°22' W 004°08'0 0.0
2017-Sep-20 01:57N 50°22' W 004°08'0 0.0
2017-Sep-20 01:21N 50°22' W 004°08'0 0.0
2017-Sep-20 00:57N 50°22' W 004°08'0 0.0
2017-Sep-20 00:27N 50°22' W 004°08'0 0.0
2017-Sep-19 23:48N 50°22' W 004°08'0 0.0
2017-Sep-19 23:30N 50°22' W 004°08'0 0.0
2017-Sep-19 22:57N 50°22' W 004°08'0 0.0
2017-Sep-19 22:29N 50°22' W 004°08'0 0.0
2017-Sep-19 21:50N 50°22' W 004°08'0 0.0
2017-Sep-19 21:29N 50°22' W 004°08'0 0.0
2017-Sep-19 20:59N 50°22' W 004°08'0 0.0
2017-Sep-19 20:29N 50°22' W 004°08'0 0.0
2017-Sep-19 19:57N 50°22' W 004°08'0 0.0
2017-Sep-19 19:30N 50°22' W 004°08'  

Dump ship's entire track history